Time;durP1;ratioP1;P1;durP2;ratioP2;P2;SDS_P1;SDS_P2;PMS_P1;PMS_P2;Temp;Humidity;BMP_temperature;BMP_pressure;BME280_temperature;BME280_humidity;BME280_pressure;Samples;Min_cycle;Max_cycle;Signal;HPM_P1;HPM_P2
2022/07/23 00:00:24;;;;;;;;;;;;;;;;;;5016220;28;20356;-80
2022/07/23 00:02:49;;;;;;;;;;;;;;;;;;5015834;28;19918;-80
2022/07/23 00:05:14;;;;;;;;;;;;;;;;;;5014955;28;19939;-80
2022/07/23 00:07:40;;;;;;;;;;;;;;;;;;5015835;28;19914;-80
2022/07/23 00:10:05;;;;;;;;;;;;;;;;;;5014720;28;20015;-80
2022/07/23 00:12:31;;;;;;;;;;;;;;;;;;5016026;28;20011;-80
2022/07/23 00:14:56;;;;;;;;;;;;;;;;;;5015239;28;19964;-80
2022/07/23 00:17:21;;;;;;;;;;;;;;;;;;5014962;28;19981;-79
2022/07/23 00:19:47;;;;;;;;;;;;;;;;;;5014606;28;19920;-80
2022/07/23 00:22:12;;;;;;;;;;;;;;;;;;5014485;28;19914;-80
2022/07/23 00:24:37;;;;;;;;;;;;;;;;;;5014211;28;19933;-80
2022/07/23 00:27:03;;;;;;;;;;;;;;;;;;5015819;28;20007;-80
2022/07/23 00:29:29;;;;;;;;;;;;;;;;;;5013218;28;19952;-81
2022/07/23 00:31:54;;;;;;;;;;;;;;;;;;5015393;28;19922;-80
2022/07/23 00:34:19;;;;;;;;;;;;;;;;;;5015967;28;19917;-80
2022/07/23 00:36:44;;;;;;;;;;;;;;;;;;5014003;28;20008;-80
2022/07/23 00:39:10;;;;;;;;;;;;;;;;;;5014003;28;20372;-80
2022/07/23 00:41:35;;;;;;;;;;;;;;;;;;5014125;28;19913;-80
2022/07/23 00:44:19;;;;;;;;;;;;;;;;;;5015333;28;19921;-81
2022/07/23 00:46:48;;;;;;;;;;;;;;;;;;5015248;28;19918;-80
2022/07/23 00:49:13;;;;;;;;;;;;;;;;;;5014100;28;19914;-80
2022/07/23 00:51:39;;;;;;;;;;;;;;;;;;5015273;28;19917;-80
2022/07/23 00:54:04;;;;;;;;;;;;;;;;;;5014311;28;19925;-80
2022/07/23 00:56:29;;;;;;;;;;;;;;;;;;5015273;28;19960;-80
2022/07/23 00:58:55;;;;;;;;;;;;;;;;;;5014254;28;19918;-80
2022/07/23 01:01:20;;;;;;;;;;;;;;;;;;5013722;28;19967;-80
2022/07/23 01:03:45;;;;;;;;;;;;;;;;;;5015176;28;19929;-81
2022/07/23 01:06:10;;;;;;;;;;;;;;;;;;5013758;28;19917;-80
2022/07/23 01:08:36;;;;;;;;;;;;;;;;;;5013611;28;19964;-80
2022/07/23 01:11:01;;;;;;;;;;;;;;;;;;5013398;28;19924;-81
2022/07/23 01:13:26;;;;;;;;;;;;;;;;;;5013651;28;19914;-81
2022/07/23 01:15:51;;;;;;;;;;;;;;;;;;5014754;28;20287;-80
2022/07/23 01:18:17;;;;;;;;;;;;;;;;;;5013315;28;19917;-80
2022/07/23 01:20:42;;;;;;;;;;;;;;;;;;5014734;28;20404;-80
2022/07/23 01:23:07;;;;;;;;;;;;;;;;;;5014372;28;19948;-80
2022/07/23 01:25:32;;;;;;;;;;;;;;;;;;5013080;28;19950;-80
2022/07/23 01:27:58;;;;;;;;;;;;;;;;;;5013312;28;20003;-80
2022/07/23 01:30:23;;;;;;;;;;;;;;;;;;5013205;28;19928;-80
2022/07/23 01:32:48;;;;;;;;;;;;;;;;;;5014274;28;19983;-80
2022/07/23 01:35:14;;;;;;;;;;;;;;;;;;5013081;28;19917;-80
2022/07/23 01:37:39;;;;;;;;;;;;;;;;;;5014124;28;19918;-80
2022/07/23 01:40:05;;;;;;;;;;;;;;;;;;5012622;28;19976;-80
2022/07/23 01:42:30;;;;;;;;;;;;;;;;;;5012956;28;20008;-80
2022/07/23 01:44:55;;;;;;;;;;;;;;;;;;5012920;28;19964;-80
2022/07/23 01:47:20;;;;;;;;;;;;;;;;;;5012688;28;20360;-80
2022/07/23 01:49:46;;;;;;;;;;;;;;;;;;5012933;28;19956;-81
2022/07/23 01:52:11;;;;;;;;;;;;;;;;;;5012778;28;19917;-80
2022/07/23 01:54:37;;;;;;;;;;;;;;;;;;5012754;28;20361;-80
2022/07/23 01:57:02;;;;;;;;;;;;;;;;;;5013395;28;19913;-80
2022/07/23 01:59:29;;;;;;;;;;;;;;;;;;5013015;28;19920;-80
2022/07/23 02:01:54;;;;;;;;;;;;;;;;;;4996160;28;19922;-81
2022/07/23 02:04:20;;;;;;;;;;;;;;;;;;5013701;28;19922;-80
2022/07/23 02:06:45;;;;;;;;;;;;;;;;;;5012733;28;20004;-80
2022/07/23 02:09:10;;;;;;;;;;;;;;;;;;5012787;28;20008;-80
2022/07/23 02:11:35;;;;;;;;;;;;;;;;;;5014092;28;19918;-80
2022/07/23 02:14:01;;;;;;;;;;;;;;;;;;5013700;28;19918;-80
2022/07/23 02:16:26;;;;;;;;;;;;;;;;;;5012441;28;19917;-81
2022/07/23 02:18:51;;;;;;;;;;;;;;;;;;5012829;28;20041;-81
2022/07/23 02:21:17;;;;;;;;;;;;;;;;;;5013975;28;19922;-81
2022/07/23 02:23:42;;;;;;;;;;;;;;;;;;5013941;28;19971;-80
2022/07/23 02:26:07;;;;;;;;;;;;;;;;;;5012303;28;19961;-80
2022/07/23 02:28:32;;;;;;;;;;;;;;;;;;5013692;28;20287;-80
2022/07/23 02:30:58;;;;;;;;;;;;;;;;;;5013671;28;20232;-80
2022/07/23 02:33:23;;;;;;;;;;;;;;;;;;5013475;28;19917;-80
2022/07/23 02:35:48;;;;;;;;;;;;;;;;;;5013378;28;19925;-81
2022/07/23 02:38:14;;;;;;;;;;;;;;;;;;5012153;28;19922;-80
2022/07/23 02:40:39;;;;;;;;;;;;;;;;;;5013245;28;20292;-80
2022/07/23 02:43:04;;;;;;;;;;;;;;;;;;5013208;28;19924;-80
2022/07/23 02:45:29;;;;;;;;;;;;;;;;;;5012188;28;19944;-80
2022/07/23 02:47:55;;;;;;;;;;;;;;;;;;5013152;28;20280;-80
2022/07/23 02:50:20;;;;;;;;;;;;;;;;;;5011937;28;19921;-80
2022/07/23 02:52:45;;;;;;;;;;;;;;;;;;5014446;28;20354;-80
2022/07/23 02:55:11;;;;;;;;;;;;;;;;;;5016481;28;19917;-79
2022/07/23 02:57:36;;;;;;;;;;;;;;;;;;5017461;28;19917;-80
2022/07/23 03:00:02;;;;;;;;;;;;;;;;;;5017394;28;19917;-80
2022/07/23 03:02:27;;;;;;;;;;;;;;;;;;4999608;28;19992;-80
2022/07/23 03:04:54;;;;;;;;;;;;;;;;;;5016741;28;20360;-80
2022/07/23 03:07:20;;;;;;;;;;;;;;;;;;5015855;28;19924;-80
2022/07/23 03:09:45;;;;;;;;;;;;;;;;;;5017481;28;20008;-80
2022/07/23 03:12:10;;;;;;;;;;;;;;;;;;5017129;28;20368;-80
2022/07/23 03:14:35;;;;;;;;;;;;;;;;;;5015831;28;19965;-80
2022/07/23 03:17:01;;;;;;;;;;;;;;;;;;5017002;28;19924;-80
2022/07/23 03:19:26;;;;;;;;;;;;;;;;;;5016388;28;19977;-80
2022/07/23 03:21:51;;;;;;;;;;;;;;;;;;5017057;28;19921;-80
2022/07/23 03:24:19;;;;;;;;;;;;;;;;;;5016888;28;19922;-80
2022/07/23 03:26:44;;;;;;;;;;;;;;;;;;5015742;28;19921;-80
2022/07/23 03:29:10;;;;;;;;;;;;;;;;;;5015337;28;19921;-80
2022/07/23 03:31:35;;;;;;;;;;;;;;;;;;5016566;28;19986;-80
2022/07/23 03:34:00;;;;;;;;;;;;;;;;;;5015264;28;20383;-80
2022/07/23 03:36:26;;;;;;;;;;;;;;;;;;5016494;28;19924;-80
2022/07/23 03:38:51;;;;;;;;;;;;;;;;;;5015284;28;19922;-80
2022/07/23 03:41:17;;;;;;;;;;;;;;;;;;5016660;28;19926;-80
2022/07/23 03:43:42;;;;;;;;;;;;;;;;;;5016577;28;19926;-80
2022/07/23 03:46:07;;;;;;;;;;;;;;;;;;4998910;28;19940;-79
2022/07/23 03:48:33;;;;;;;;;;;;;;;;;;5016676;28;20380;-80
2022/07/23 03:50:58;;;;;;;;;;;;;;;;;;5016197;28;19940;-81
2022/07/23 03:53:24;;;;;;;;;;;;;;;;;;5016558;28;19953;-80
2022/07/23 03:55:49;;;;;;;;;;;;;;;;;;5016561;28;19917;-81
2022/07/23 03:58:14;;;;;;;;;;;;;;;;;;5015199;28;19918;-81
2022/07/23 04:00:39;;;;;;;;;;;;;;;;;;5015014;28;20028;-80
2022/07/23 04:03:05;;;;;;;;;;;;;;;;;;5015659;28;20345;-81
2022/07/23 04:05:30;;;;;;;;;;;;;;;;;;5015226;28;19922;-80
2022/07/23 04:07:55;;;;;;;;;;;;;;;;;;5014781;28;19925;-80
2022/07/23 04:10:20;;;;;;;;;;;;;;;;;;4998319;28;19917;-80
2022/07/23 04:12:46;;;;;;;;;;;;;;;;;;5015821;28;19924;-80
2022/07/23 04:15:11;;;;;;;;;;;;;;;;;;5016013;28;19924;-80
2022/07/23 04:17:36;;;;;;;;;;;;;;;;;;5016015;28;19928;-80
2022/07/23 04:20:02;;;;;;;;;;;;;;;;;;5016067;28;20257;-80
2022/07/23 04:22:27;;;;;;;;;;;;;;;;;;5014413;28;20398;-79
2022/07/23 04:24:52;;;;;;;;;;;;;;;;;;5015649;28;19922;-80
2022/07/23 04:27:18;;;;;;;;;;;;;;;;;;5014638;28;19965;-80
2022/07/23 04:29:44;;;;;;;;;;;;;;;;;;5014898;28;19917;-81
2022/07/23 04:32:09;;;;;;;;;;;;;;;;;;5015192;28;20000;-80
2022/07/23 04:34:34;;;;;;;;;;;;;;;;;;5015187;28;19917;-80
2022/07/23 04:36:59;;;;;;;;;;;;;;;;;;5016531;28;19918;-80
2022/07/23 04:39:24;;;;;;;;;;;;;;;;;;5016168;28;20277;-80
2022/07/23 04:41:50;;;;;;;;;;;;;;;;;;4998596;28;19921;-80
2022/07/23 04:44:15;;;;;;;;;;;;;;;;;;5014989;28;19917;-80
2022/07/23 04:46:40;;;;;;;;;;;;;;;;;;5014689;28;20349;-80
2022/07/23 04:49:05;;;;;;;;;;;;;;;;;;4998385;28;19925;-81
2022/07/23 04:51:31;;;;;;;;;;;;;;;;;;5016174;28;20353;-81
2022/07/23 04:53:56;;;;;;;;;;;;;;;;;;5014869;28;19961;-81
2022/07/23 04:56:21;;;;;;;;;;;;;;;;;;5014419;28;19968;-81
2022/07/23 04:58:47;;;;;;;;;;;;;;;;;;5014457;28;19917;-80
2022/07/23 05:01:12;;;;;;;;;;;;;;;;;;5015681;28;19917;-80
2022/07/23 05:03:37;;;;;;;;;;;;;;;;;;5014260;28;20283;-80
2022/07/23 05:06:03;;;;;;;;;;;;;;;;;;5015497;28;19925;-80
2022/07/23 05:08:28;;;;;;;;;;;;;;;;;;5015600;28;19968;-80
2022/07/23 05:10:53;;;;;;;;;;;;;;;;;;5015363;28;19926;-80
2022/07/23 05:13:19;;;;;;;;;;;;;;;;;;5014118;28;19963;-80
2022/07/23 05:15:44;;;;;;;;;;;;;;;;;;5014946;28;19987;-79
2022/07/23 05:18:09;;;;;;;;;;;;;;;;;;5014160;28;19918;-79
2022/07/23 05:20:35;;;;;;;;;;;;;;;;;;5014018;28;20370;-80
2022/07/23 05:23:00;;;;;;;;;;;;;;;;;;5013898;28;19918;-80
2022/07/23 05:25:25;;;;;;;;;;;;;;;;;;5015105;28;19917;-81
2022/07/23 05:27:50;;;;;;;;;;;;;;;;;;5015116;28;19918;-80
2022/07/23 05:30:16;;;;;;;;;;;;;;;;;;5015077;28;19949;-80
2022/07/23 05:32:41;;;;;;;;;;;;;;;;;;5015301;28;20392;-80
2022/07/23 05:35:07;;;;;;;;;;;;;;;;;;5013701;28;19913;-80
2022/07/23 05:37:32;;;;;;;;;;;;;;;;;;5013589;28;19914;-81
2022/07/23 05:40:02;;;;;;;;;;;;;;;;;;5013724;28;19968;-80
2022/07/23 05:42:27;;;;;;;;;;;;;;;;;;5014342;28;20276;-80
2022/07/23 05:44:52;;;;;;;;;;;;;;;;;;5014676;28;19922;-80
2022/07/23 05:47:17;;;;;;;;;;;;;;;;;;5013513;28;19983;-80
2022/07/23 05:49:43;;;;;;;;;;;;;;;;;;5014714;28;19917;-80
2022/07/23 05:52:09;;;;;;;;;;;;;;;;;;5013472;28;19917;-81
2022/07/23 05:54:35;;;;;;;;;;;;;;;;;;5014819;28;19921;-84
2022/07/23 05:57:00;;;;;;;;;;;;;;;;;;4997914;28;20364;-83
2022/07/23 05:59:25;;;;;;;;;;;;;;;;;;5014876;28;19924;-80
2022/07/23 06:01:50;;;;;;;;;;;;;;;;;;5014455;28;19918;-79
2022/07/23 06:04:16;;;;;;;;;;;;;;;;;;5014494;28;19922;-79
2022/07/23 06:06:41;;;;;;;;;;;;;;;;;;5013621;28;20291;-81
2022/07/23 06:09:06;;;;;;;;;;;;;;;;;;5013335;28;19921;-81
2022/07/23 06:11:32;;;;;;;;;;;;;;;;;;5013081;28;20008;-81
2022/07/23 06:13:57;;;;;;;;;;;;;;;;;;5014419;28;20016;-79
2022/07/23 06:16:22;;;;;;;;;;;;;;;;;;5012997;28;19975;-79
2022/07/23 06:18:47;;;;;;;;;;;;;;;;;;5014692;28;19918;-80
2022/07/23 06:21:13;;;;;;;;;;;;;;;;;;5013073;28;20372;-79
2022/07/23 06:23:38;;;;;;;;;;;;;;;;;;5012994;28;19917;-79
2022/07/23 06:26:03;;;;;;;;;;;;;;;;;;5014220;28;19921;-81
2022/07/23 06:28:28;;;;;;;;;;;;;;;;;;5012846;28;19917;-82
2022/07/23 06:30:54;;;;;;;;;;;;;;;;;;5014403;28;19944;-82
2022/07/23 06:33:19;;;;;;;;;;;;;;;;;;5012854;28;19917;-81
2022/07/23 06:35:44;;;;;;;;;;;;;;;;;;5012875;28;19917;-82
2022/07/23 06:38:09;;;;;;;;;;;;;;;;;;5014179;28;19976;-82
2022/07/23 06:40:35;;;;;;;;;;;;;;;;;;5012872;28;20017;-80
2022/07/23 06:43:00;;;;;;;;;;;;;;;;;;5012649;28;20008;-81
2022/07/23 06:45:25;;;;;;;;;;;;;;;;;;4996392;28;19926;-81
2022/07/23 06:47:50;;;;;;;;;;;;;;;;;;5012742;28;19920;-83
2022/07/23 06:50:16;;;;;;;;;;;;;;;;;;5012667;28;19917;-84
2022/07/23 06:52:41;;;;;;;;;;;;;;;;;;5012819;28;19918;-81
2022/07/23 06:55:06;;;;;;;;;;;;;;;;;;5012744;28;19924;-80
2022/07/23 06:57:32;;;;;;;;;;;;;;;;;;5013616;28;19917;-84
2022/07/23 06:59:57;;;;;;;;;;;;;;;;;;4996310;28;19953;-80
2022/07/23 07:02:22;;;;;;;;;;;;;;;;;;5012991;28;19965;-83
2022/07/23 07:04:48;;;;;;;;;;;;;;;;;;5013946;28;20012;-82
2022/07/23 07:07:14;;;;;;;;;;;;;;;;;;5012664;28;19917;-81
2022/07/23 07:09:39;;;;;;;;;;;;;;;;;;5014997;28;20293;-81
2022/07/23 07:12:04;;;;;;;;;;;;;;;;;;5013914;28;19920;-81
2022/07/23 07:14:30;;;;;;;;;;;;;;;;;;5013590;28;19917;-81
2022/07/23 07:16:55;;;;;;;;;;;;;;;;;;5012363;28;19953;-80
2022/07/23 07:19:20;;;;;;;;;;;;;;;;;;5013704;28;19918;-80
2022/07/23 07:21:46;;;;;;;;;;;;;;;;;;5012358;28;19914;-80
2022/07/23 07:24:11;;;;;;;;;;;;;;;;;;5013815;28;19969;-81
2022/07/23 07:26:38;;;;;;;;;;;;;;;;;;5012618;28;19913;-80
2022/07/23 07:29:03;;;;;;;;;;;;;;;;;;5013074;28;19921;-80
2022/07/23 07:31:29;;;;;;;;;;;;;;;;;;5014149;28;20009;-80
2022/07/23 07:33:56;;;;;;;;;;;;;;;;;;5012530;28;19918;-81
2022/07/23 07:36:22;;;;;;;;;;;;;;;;;;5014304;28;19917;-81
2022/07/23 07:38:47;;;;;;;;;;;;;;;;;;5014891;28;19971;-81
2022/07/23 07:41:12;;;;;;;;;;;;;;;;;;5017513;28;20015;-81
2022/07/23 07:43:38;;;;;;;;;;;;;;;;;;5017209;28;19928;-84
2022/07/23 07:46:03;;;;;;;;;;;;;;;;;;5016152;28;19913;-82
2022/07/23 07:48:29;;;;;;;;;;;;;;;;;;5016443;28;19975;-81
2022/07/23 07:50:54;;;;;;;;;;;;;;;;;;5015952;28;19968;-81
2022/07/23 07:53:19;;;;;;;;;;;;;;;;;;5017519;28;19924;-81
2022/07/23 07:55:45;;;;;;;;;;;;;;;;;;5015820;28;19948;-80
2022/07/23 07:58:11;;;;;;;;;;;;;;;;;;5017258;28;19964;-81
2022/07/23 08:00:37;;;;;;;;;;;;;;;;;;5016077;28;19913;-80
2022/07/23 08:03:02;;;;;;;;;;;;;;;;;;5015477;28;19917;-81
2022/07/23 08:05:28;;;;;;;;;;;;;;;;;;5016094;28;19921;-81
2022/07/23 08:07:55;;;;;;;;;;;;;;;;;;5017110;28;19937;-81
2022/07/23 08:10:20;;;;;;;;;;;;;;;;;;4999037;28;20372;-81
2022/07/23 08:12:46;;;;;;;;;;;;;;;;;;5014985;28;20004;-81
2022/07/23 08:15:13;;;;;;;;;;;;;;;;;;4998935;28;19913;-81
2022/07/23 08:17:38;;;;;;;;;;;;;;;;;;5015283;28;19948;-81
2022/07/23 08:20:04;;;;;;;;;;;;;;;;;;5015049;28;19961;-81
2022/07/23 08:22:48;;;;;;;;;;;;;;;;;;4998662;28;20004;-81
2022/07/23 08:25:14;;;;;;;;;;;;;;;;;;5014978;28;19918;-80
2022/07/23 08:27:40;;;;;;;;;;;;;;;;;;5014938;28;19925;-80
2022/07/23 08:30:05;;;;;;;;;;;;;;;;;;5014895;28;19913;-81
2022/07/23 08:32:31;;;;;;;;;;;;;;;;;;4998524;28;19918;-81
2022/07/23 08:34:56;;;;;;;;;;;;;;;;;;5014814;28;19953;-81
2022/07/23 08:37:21;;;;;;;;;;;;;;;;;;5014946;28;19966;-81
2022/07/23 08:39:46;;;;;;;;;;;;;;;;;;5014625;28;19933;-80
2022/07/23 08:42:13;;;;;;;;;;;;;;;;;;5015941;28;20361;-80
2022/07/23 08:44:39;;;;;;;;;;;;;;;;;;5014722;28;19924;-80
2022/07/23 08:47:04;;;;;;;;;;;;;;;;;;4998432;28;20016;-80
2022/07/23 08:49:30;;;;;;;;;;;;;;;;;;5014668;28;20394;-80
2022/07/23 08:51:55;;;;;;;;;;;;;;;;;;5016118;28;20382;-80
2022/07/23 08:54:21;;;;;;;;;;;;;;;;;;5014680;28;19918;-80
2022/07/23 08:56:46;;;;;;;;;;;;;;;;;;5014928;28;19920;-80
2022/07/23 08:59:13;;;;;;;;;;;;;;;;;;5014481;28;19917;-80
2022/07/23 09:01:38;;;;;;;;;;;;;;;;;;5015909;28;19918;-81
2022/07/23 09:04:04;;;;;;;;;;;;;;;;;;4998126;28;19925;-80
2022/07/23 09:06:29;;;;;;;;;;;;;;;;;;5016126;28;19917;-81
2022/07/23 09:08:55;;;;;;;;;;;;;;;;;;5015724;28;19956;-80
2022/07/23 09:11:20;;;;;;;;;;;;;;;;;;5019503;28;19925;-80
2022/07/23 09:13:48;;;;;;;;;;;;;;;;;;5014729;28;19926;-80
2022/07/23 09:16:15;;;;;;;;;;;;;;;;;;5016723;28;19913;-80
2022/07/23 09:18:43;;;;;;;;;;;;;;;;;;5018531;28;19918;-80
2022/07/23 09:21:12;;;;;;;;;;;;;;;;;;5017243;28;20435;-80
2022/07/23 09:23:38;;;;;;;;;;;;;;;;;;5018629;28;19917;-80
2022/07/23 09:26:10;;;;;;;;;;;;;;;;;;4998913;28;19913;-80
2022/07/23 09:28:46;;;;;;;;;;;;;;;;;;5001275;28;19936;-80
2022/07/23 09:31:11;;;;;;;;;;;;;;;;;;5016633;28;19913;-79
2022/07/23 09:33:38;;;;;;;;;;;;;;;;;;5016889;28;19924;-79
2022/07/23 09:36:04;;;;;;;;;;;;;;;;;;5021648;28;19963;-79
2022/07/23 09:38:29;;;;;;;;;;;;;;;;;;5024570;28;20008;-80
2022/07/23 09:41:10;;;;;;;;;;;;;;;;;;5019307;28;19930;-80
2022/07/23 09:43:35;;;;;;;;;;;;;;;;;;5014482;28;19917;-81
2022/07/23 09:46:19;;;;;;;;;;;;;;;;;;5013595;28;20042;-79
2022/07/23 09:48:44;;;;;;;;;;;;;;;;;;5014859;28;19917;-79
2022/07/23 09:51:10;;;;;;;;;;;;;;;;;;4997198;28;19929;-79
2022/07/23 09:53:35;;;;;;;;;;;;;;;;;;5013556;28;19913;-79
2022/07/23 09:56:00;;;;;;;;;;;;;;;;;;5012317;28;19981;-78
2022/07/23 09:58:29;;;;;;;;;;;;;;;;;;5015312;28;19939;-79
2022/07/23 10:00:54;;;;;;;;;;;;;;;;;;4997178;28;20534;-80
2022/07/23 10:03:19;;;;;;;;;;;;;;;;;;5013625;28;19937;-79
2022/07/23 10:05:45;;;;;;;;;;;;;;;;;;5013731;28;19968;-80
2022/07/23 10:08:11;;;;;;;;;;;;;;;;;;5013536;28;20364;-80
2022/07/23 10:10:36;;;;;;;;;;;;;;;;;;5014523;28;19918;-80
2022/07/23 10:15:36;;;;;;;;;;;;;;;;;;5013687;28;19918;-80
2022/07/23 10:18:01;;;;;;;;;;;;;;;;;;5014584;28;19932;-80
2022/07/23 10:20:26;;;;;;;;;;;;;;;;;;5013757;28;19963;-80
2022/07/23 10:22:51;;;;;;;;;;;;;;;;;;5013159;28;19913;-80
2022/07/23 10:25:28;;;;;;;;;;;;;;;;;;5014377;28;19924;-80
2022/07/23 10:28:04;;;;;;;;;;;;;;;;;;5016135;28;20387;-80
2022/07/23 10:30:32;;;;;;;;;;;;;;;;;;5017133;28;19914;-80
2022/07/23 10:33:03;;;;;;;;;;;;;;;;;;5018159;28;19914;-80
2022/07/23 10:35:47;;;;;;;;;;;;;;;;;;5015430;28;19913;-80
2022/07/23 10:38:34;;;;;;;;;;;;;;;;;;5015499;28;19944;-81
2022/07/23 10:41:00;;;;;;;;;;;;;;;;;;5014118;28;19921;-80
2022/07/23 10:43:26;;;;;;;;;;;;;;;;;;5013053;28;19960;-80
2022/07/23 10:45:53;;;;;;;;;;;;;;;;;;4996805;28;20011;-81
2022/07/23 10:48:18;;;;;;;;;;;;;;;;;;4997254;28;20011;-80
2022/07/23 10:50:44;;;;;;;;;;;;;;;;;;5014175;28;19925;-80
2022/07/23 10:53:13;;;;;;;;;;;;;;;;;;5013337;28;19968;-81
2022/07/23 10:55:43;;;;;;;;;;;;;;;;;;4996938;28;20368;-86
2022/07/23 10:58:09;;;;;;;;;;;;;;;;;;4996631;28;20359;-80
2022/07/23 11:00:36;;;;;;;;;;;;;;;;;;4996733;28;19924;-82
2022/07/23 11:03:08;;;;;;;;;;;;;;;;;;5013977;28;19918;-82
2022/07/23 11:05:42;;;;;;;;;;;;;;;;;;5013282;28;19933;-81
2022/07/23 11:08:08;;;;;;;;;;;;;;;;;;5014039;28;20320;-80
2022/07/23 11:10:35;;;;;;;;;;;;;;;;;;5013795;28;20419;-81
2022/07/23 11:13:19;;;;;;;;;;;;;;;;;;4997255;28;20395;-82
2022/07/23 11:16:11;;;;;;;;;;;;;;;;;;5018073;28;19914;-82
2022/07/23 11:18:39;;;;;;;;;;;;;;;;;;5017724;28;19921;-81
2022/07/23 11:21:23;;;;;;;;;;;;;;;;;;5017851;28;20004;-81
2022/07/23 11:24:02;;;;;;;;;;;;;;;;;;5018704;28;19956;-81
2022/07/23 11:26:42;;;;;;;;;;;;;;;;;;5017797;28;20004;-81
2022/07/23 11:29:26;;;;;;;;;;;;;;;;;;5016170;28;19920;-82
2022/07/23 11:31:59;;;;;;;;;;;;;;;;;;5017705;28;20357;-80
2022/07/23 11:34:31;;;;;;;;;;;;;;;;;;5016125;28;20007;-81
2022/07/23 11:36:56;;;;;;;;;;;;;;;;;;5017266;28;19957;-81
2022/07/23 11:39:21;;;;;;;;;;;;;;;;;;5016127;28;19983;-80
2022/07/23 11:41:47;;;;;;;;;;;;;;;;;;4999849;28;20002;-81
2022/07/23 11:44:28;;;;;;;;;;;;;;;;;;5015946;28;19929;-81
2022/07/23 11:47:07;;;;;;;;;;;;;;;;;;5016449;28;20291;-81
2022/07/23 11:49:32;;;;;;;;;;;;;;;;;;5015806;28;19971;-81
2022/07/23 11:52:08;;;;;;;;;;;;;;;;;;5015880;28;19913;-81
2022/07/23 11:54:34;;;;;;;;;;;;;;;;;;5016129;28;20360;-81
2022/07/23 11:57:00;;;;;;;;;;;;;;;;;;5017386;28;19918;-82
2022/07/23 11:59:29;;;;;;;;;;;;;;;;;;5017326;28;20427;-82
2022/07/23 12:02:01;;;;;;;;;;;;;;;;;;5015722;28;19948;-80
2022/07/23 12:04:43;;;;;;;;;;;;;;;;;;5017084;28;20364;-81
2022/07/23 12:07:27;;;;;;;;;;;;;;;;;;4999181;28;20036;-80
2022/07/23 12:09:53;;;;;;;;;;;;;;;;;;5015443;28;19922;-80
2022/07/23 12:12:19;;;;;;;;;;;;;;;;;;4998911;28;19920;-81
2022/07/23 12:14:48;;;;;;;;;;;;;;;;;;5015271;28;19922;-80
2022/07/23 12:17:13;;;;;;;;;;;;;;;;;;5015608;28;20372;-81
2022/07/23 12:19:38;;;;;;;;;;;;;;;;;;5015590;28;19964;-82
2022/07/23 12:22:04;;;;;;;;;;;;;;;;;;5015535;28;20273;-81
2022/07/23 12:24:29;;;;;;;;;;;;;;;;;;5014977;28;19944;-80
2022/07/23 12:27:07;;;;;;;;;;;;;;;;;;5015376;28;20379;-81
2022/07/23 12:29:36;;;;;;;;;;;;;;;;;;5015297;28;19968;-81
2022/07/23 12:32:02;;;;;;;;;;;;;;;;;;5015423;28;19914;-81
2022/07/23 12:34:27;;;;;;;;;;;;;;;;;;4998643;28;20356;-81
2022/07/23 12:36:52;;;;;;;;;;;;;;;;;;4998790;28;20008;-82
2022/07/23 12:39:32;;;;;;;;;;;;;;;;;;5013762;28;19936;-82
2022/07/23 12:41:58;;;;;;;;;;;;;;;;;;5015624;28;20423;-81
2022/07/23 12:44:23;;;;;;;;;;;;;;;;;;5015829;28;20025;-81
2022/07/23 12:46:52;;;;;;;;;;;;;;;;;;5014657;28;20300;-81
2022/07/23 12:49:27;;;;;;;;;;;;;;;;;;5014945;28;20273;-82
2022/07/23 12:51:52;;;;;;;;;;;;;;;;;;5015082;28;19917;-80
2022/07/23 12:54:18;;;;;;;;;;;;;;;;;;5016242;28;20364;-81
2022/07/23 12:56:47;;;;;;;;;;;;;;;;;;5016682;28;19936;-81
2022/07/23 12:59:16;;;;;;;;;;;;;;;;;;5015412;28;19929;-79
2022/07/23 13:01:48;;;;;;;;;;;;;;;;;;5014416;28;19914;-79
2022/07/23 13:04:20;;;;;;;;;;;;;;;;;;5015551;28;19944;-79
2022/07/23 13:06:47;;;;;;;;;;;;;;;;;;4997829;28;19924;-80
2022/07/23 13:09:13;;;;;;;;;;;;;;;;;;5014753;28;19945;-81
2022/07/23 13:11:39;;;;;;;;;;;;;;;;;;5014307;28;19979;-81
2022/07/23 13:14:04;;;;;;;;;;;;;;;;;;5013950;28;19913;-81
2022/07/23 13:16:30;;;;;;;;;;;;;;;;;;5030491;28;19917;-81
2022/07/23 13:18:56;;;;;;;;;;;;;;;;;;5015114;28;20287;-80
2022/07/23 13:21:21;;;;;;;;;;;;;;;;;;5014426;28;19922;-81
2022/07/23 13:23:47;;;;;;;;;;;;;;;;;;5014935;28;19921;-80
2022/07/23 13:26:12;;;;;;;;;;;;;;;;;;5014064;28;20324;-80
2022/07/23 13:28:37;;;;;;;;;;;;;;;;;;4997081;28;19918;-80
2022/07/23 13:31:03;;;;;;;;;;;;;;;;;;5013831;28;19925;-80
2022/07/23 13:33:28;;;;;;;;;;;;;;;;;;4997357;28;19914;-81
2022/07/23 13:35:53;;;;;;;;;;;;;;;;;;4996853;28;19917;-81
2022/07/23 13:38:19;;;;;;;;;;;;;;;;;;4997506;28;19917;-81
2022/07/23 13:40:45;;;;;;;;;;;;;;;;;;5013654;28;20411;-81
2022/07/23 13:43:11;;;;;;;;;;;;;;;;;;5021046;28;19917;-81
2022/07/23 13:45:37;;;;;;;;;;;;;;;;;;5034782;28;19928;-80
2022/07/23 13:48:03;;;;;;;;;;;;;;;;;;5024248;28;20265;-81
2022/07/23 13:50:29;;;;;;;;;;;;;;;;;;4997742;28;19953;-81
2022/07/23 13:52:54;;;;;;;;;;;;;;;;;;5013399;28;19980;-80
2022/07/23 13:55:19;;;;;;;;;;;;;;;;;;5013106;28;20307;-80
2022/07/23 13:57:44;;;;;;;;;;;;;;;;;;5014326;28;19925;-80
2022/07/23 14:00:11;;;;;;;;;;;;;;;;;;5014513;28;20365;-80
2022/07/23 14:02:37;;;;;;;;;;;;;;;;;;5013205;28;19921;-80
2022/07/23 14:05:03;;;;;;;;;;;;;;;;;;4996949;28;19918;-80
2022/07/23 14:07:29;;;;;;;;;;;;;;;;;;5014100;28;19917;-79
2022/07/23 14:09:54;;;;;;;;;;;;;;;;;;4996883;28;20004;-80
2022/07/23 14:12:19;;;;;;;;;;;;;;;;;;5014147;28;20383;-80
2022/07/23 14:14:44;;;;;;;;;;;;;;;;;;5013225;28;19925;-80
2022/07/23 14:17:10;;;;;;;;;;;;;;;;;;5013287;28;19918;-80
2022/07/23 14:19:35;;;;;;;;;;;;;;;;;;5013929;28;19924;-80
2022/07/23 14:22:00;;;;;;;;;;;;;;;;;;5012815;28;19917;-80
2022/07/23 14:24:26;;;;;;;;;;;;;;;;;;4996559;28;19922;-80
2022/07/23 14:26:51;;;;;;;;;;;;;;;;;;5014256;28;19918;-80
2022/07/23 14:29:17;;;;;;;;;;;;;;;;;;5014008;28;20294;-80
2022/07/23 14:31:42;;;;;;;;;;;;;;;;;;4996498;28;20357;-80
2022/07/23 14:34:07;;;;;;;;;;;;;;;;;;5012362;28;19918;-80
2022/07/23 14:36:32;;;;;;;;;;;;;;;;;;5020355;28;19923;-80
2022/07/23 14:38:58;;;;;;;;;;;;;;;;;;5033950;28;19928;-81
2022/07/23 14:41:23;;;;;;;;;;;;;;;;;;5033672;28;19925;-80
2022/07/23 14:43:48;;;;;;;;;;;;;;;;;;5033399;28;19964;-80
2022/07/23 14:46:14;;;;;;;;;;;;;;;;;;5032573;28;19998;-80
2022/07/23 14:48:39;;;;;;;;;;;;;;;;;;5017942;28;19952;-80
2022/07/23 14:51:04;;;;;;;;;;;;;;;;;;5036789;28;20394;-80
2022/07/23 14:53:30;;;;;;;;;;;;;;;;;;5037496;28;19917;-81
2022/07/23 14:55:56;;;;;;;;;;;;;;;;;;5020046;28;20272;-80
2022/07/23 14:58:22;;;;;;;;;;;;;;;;;;5036418;28;19913;-80
2022/07/23 15:00:47;;;;;;;;;;;;;;;;;;5037727;28;19924;-80
2022/07/23 15:03:12;;;;;;;;;;;;;;;;;;5036711;28;19913;-80
2022/07/23 15:05:38;;;;;;;;;;;;;;;;;;5037397;28;19922;-80
2022/07/23 15:08:03;;;;;;;;;;;;;;;;;;5038324;28;20009;-80
2022/07/23 15:10:29;;;;;;;;;;;;;;;;;;5042357;28;19913;-80
2022/07/23 15:12:55;;;;;;;;;;;;;;;;;;5028180;28;19925;-81
2022/07/23 15:15:20;;;;;;;;;;;;;;;;;;5047587;28;20008;-80
2022/07/23 15:17:46;;;;;;;;;;;;;;;;;;5028007;28;19917;-80
2022/07/23 15:20:11;;;;;;;;;;;;;;;;;;5045261;28;19924;-80
2022/07/23 15:22:36;;;;;;;;;;;;;;;;;;5047714;28;20398;-80
2022/07/23 15:25:02;;;;;;;;;;;;;;;;;;5047384;28;20330;-80
2022/07/23 15:27:27;;;;;;;;;;;;;;;;;;5024018;28;20005;-80
2022/07/23 15:29:53;;;;;;;;;;;;;;;;;;5040825;28;19913;-80
2022/07/23 15:32:18;;;;;;;;;;;;;;;;;;5037828;28;19913;-80
2022/07/23 15:34:43;;;;;;;;;;;;;;;;;;5038575;28;20284;-80
2022/07/23 15:37:08;;;;;;;;;;;;;;;;;;5020054;28;19913;-79
2022/07/23 15:39:34;;;;;;;;;;;;;;;;;;5037979;28;19925;-80
2022/07/23 15:42:00;;;;;;;;;;;;;;;;;;5036189;28;20395;-80
2022/07/23 15:44:25;;;;;;;;;;;;;;;;;;5035857;28;20323;-80
2022/07/23 15:46:50;;;;;;;;;;;;;;;;;;5036212;28;19913;-80
2022/07/23 15:49:16;;;;;;;;;;;;;;;;;;5036741;28;19924;-80
2022/07/23 15:51:41;;;;;;;;;;;;;;;;;;5037022;28;19917;-81
2022/07/23 15:54:06;;;;;;;;;;;;;;;;;;5036926;28;19960;-81
2022/07/23 15:56:31;;;;;;;;;;;;;;;;;;5035880;28;19940;-80
2022/07/23 15:58:57;;;;;;;;;;;;;;;;;;5035070;28;19914;-80
2022/07/23 16:01:23;;;;;;;;;;;;;;;;;;5036709;28;20377;-82
2022/07/23 16:03:48;;;;;;;;;;;;;;;;;;5035342;28;20347;-81
2022/07/23 16:06:13;;;;;;;;;;;;;;;;;;5036504;28;19917;-81
2022/07/23 16:08:39;;;;;;;;;;;;;;;;;;5036989;28;19924;-82
2022/07/23 16:11:05;;;;;;;;;;;;;;;;;;5035723;28;19928;-80
2022/07/23 16:13:30;;;;;;;;;;;;;;;;;;5035265;28;19945;-80
2022/07/23 16:15:55;;;;;;;;;;;;;;;;;;5035827;28;19921;-79
2022/07/23 16:18:22;;;;;;;;;;;;;;;;;;5035332;28;20364;-78
2022/07/23 16:20:47;;;;;;;;;;;;;;;;;;5038026;28;19917;-78
2022/07/23 16:23:13;;;;;;;;;;;;;;;;;;5038543;28;19952;-79
2022/07/23 16:25:38;;;;;;;;;;;;;;;;;;5037211;28;19921;-79
2022/07/23 16:28:05;;;;;;;;;;;;;;;;;;5021388;28;19963;-79
2022/07/23 16:30:31;;;;;;;;;;;;;;;;;;5037505;28;19917;-78
2022/07/23 16:32:56;;;;;;;;;;;;;;;;;;5037049;28;20339;-78
2022/07/23 16:35:21;;;;;;;;;;;;;;;;;;5036157;28;20292;-78
2022/07/23 16:37:47;;;;;;;;;;;;;;;;;;5036034;28;20280;-79
2022/07/23 16:40:12;;;;;;;;;;;;;;;;;;5018187;28;20348;-79
2022/07/23 16:42:37;;;;;;;;;;;;;;;;;;5035024;28;20252;-79